Details for Ryanair at LEGE




Go Back


Latest METAR
Local Time

LEGE 250430Z 00000KT 9000 NSC 12/12 Q1016

25/05/2018, 06:50:22

Description
Results
Ryanair Logo
Number of Pilots based at LEGE
0 Pilots Based here
Number of Ryanair Flights Departed from LEGE
2 Flights Departed
Number of Ryanair Flights Arrived at LEGE
2 Flights Arrived
Number of Ryanair Schedules Departing from LEGE
72 Schedules
Number of Ryanair Schedules Arriving at LEGE
70 Schedules
Number of Ryanair Schedules Departing from LEGE availible today
19 Schedules Today
Number of Ryanair Schedules Arriving at LEGE availible today
18 Schedules Today
Average Landing Rate at LEGE
-199 fpm
Ryanair Average Landing Rate at LEGE
-193 fpm
Total Fuel Purchased at LEGE by Ryanair
11,134.78 kgs / 24,547.74 lbs

Pilots Based at LEGE


Pilot ID
Pilot Name
Pilot Rank
No. of Flights
No. of Flying Hours
There are no pilots assigned to this hub!   Will you be the first?
Content